sensor_id;sensor_type;location;lat;lon;timestamp;pressure;altitude;pressure_sealevel;temperature;humidity
31299;BME280;17927;52.350;13.402;2023-10-13T00:01:57;101031.75;;;18.62;62.19
31299;BME280;17927;52.350;13.402;2023-10-13T00:04:27;101034.69;;;18.60;62.27
31299;BME280;17927;52.350;13.402;2023-10-13T00:06:53;101026.50;;;18.60;62.21
31299;BME280;17927;52.350;13.402;2023-10-13T00:09:19;101034.69;;;18.60;62.01
31299;BME280;17927;52.350;13.402;2023-10-13T00:11:49;101030.25;;;18.59;62.30
31299;BME280;17927;52.350;13.402;2023-10-13T00:14:14;101040.16;;;18.60;62.28
31299;BME280;17927;52.350;13.402;2023-10-13T00:16:44;101031.75;;;18.62;62.41
31299;BME280;17927;52.350;13.402;2023-10-13T00:19:33;101026.69;;;18.59;62.57
31299;BME280;17927;52.350;13.402;2023-10-13T00:22:11;101023.09;;;18.58;62.23
31299;BME280;17927;52.350;13.402;2023-10-13T00:24:40;101010.44;;;18.57;62.30
31299;BME280;17927;52.350;13.402;2023-10-13T00:27:19;101013.03;;;18.59;62.33
31299;BME280;17927;52.350;13.402;2023-10-13T00:30:00;101015.75;;;18.59;62.66
31299;BME280;17927;52.350;13.402;2023-10-13T00:32:45;101014.88;;;18.58;62.40
31299;BME280;17927;52.350;13.402;2023-10-13T00:35:22;101013.84;;;18.59;62.68
31299;BME280;17927;52.350;13.402;2023-10-13T00:37:53;101017.44;;;18.60;62.46
31299;BME280;17927;52.350;13.402;2023-10-13T00:40:23;101008.22;;;18.61;62.30
31299;BME280;17927;52.350;13.402;2023-10-13T00:42:58;101008.38;;;18.59;62.45
31299;BME280;17927;52.350;13.402;2023-10-13T00:45:56;101008.97;;;18.54;62.88
31299;BME280;17927;52.350;13.402;2023-10-13T00:48:32;101000.75;;;18.54;62.80
31299;BME280;17927;52.350;13.402;2023-10-13T00:51:07;100998.00;;;18.54;62.83
31299;BME280;17927;52.350;13.402;2023-10-13T00:53:34;100987.72;;;18.56;62.77
31299;BME280;17927;52.350;13.402;2023-10-13T00:56:02;100992.53;;;18.54;62.96
31299;BME280;17927;52.350;13.402;2023-10-13T00:58:48;100990.84;;;18.53;62.57
31299;BME280;17927;52.350;13.402;2023-10-13T01:01:18;100994.25;;;18.55;62.83
31299;BME280;17927;52.350;13.402;2023-10-13T01:03:45;100988.09;;;18.53;62.80
31299;BME280;17927;52.350;13.402;2023-10-13T01:06:11;100998.84;;;18.55;62.60
31299;BME280;17927;52.350;13.402;2023-10-13T01:08:37;101000.94;;;18.53;62.97
31299;BME280;17927;52.350;13.402;2023-10-13T01:11:04;100992.75;;;18.53;63.03
31299;BME280;17927;52.350;13.402;2023-10-13T01:13:32;100996.53;;;18.52;62.84
31299;BME280;17927;52.350;13.402;2023-10-13T01:16:01;101001.13;;;18.51;63.04
31299;BME280;17927;52.350;13.402;2023-10-13T01:18:26;100998.22;;;18.53;63.22
31299;BME280;17927;52.350;13.402;2023-10-13T01:20:53;100996.53;;;18.52;62.97
31299;BME280;17927;52.350;13.402;2023-10-13T01:23:22;100995.00;;;18.49;63.23
31299;BME280;17927;52.350;13.402;2023-10-13T01:25:50;100995.00;;;18.49;63.13
31299;BME280;17927;52.350;13.402;2023-10-13T01:28:16;101001.50;;;18.48;63.30
31299;BME280;17927;52.350;13.402;2023-10-13T01:30:43;100996.22;;;18.47;63.40
31299;BME280;17927;52.350;13.402;2023-10-13T01:33:09;101001.69;;;18.47;63.16
31299;BME280;17927;52.350;13.402;2023-10-13T01:35:36;101000.66;;;18.48;63.55
31299;BME280;17927;52.350;13.402;2023-10-13T01:38:07;100993.28;;;18.48;63.46
31299;BME280;17927;52.350;13.402;2023-10-13T01:40:32;100997.72;;;18.49;63.30
31299;BME280;17927;52.350;13.402;2023-10-13T01:43:00;100995.00;;;18.49;63.50
31299;BME280;17927;52.350;13.402;2023-10-13T01:45:25;100999.63;;;18.49;63.26
31299;BME280;17927;52.350;13.402;2023-10-13T01:47:54;100998.75;;;18.48;63.61
31299;BME280;17927;52.350;13.402;2023-10-13T01:50:19;100995.19;;;18.48;63.44
31299;BME280;17927;52.350;13.402;2023-10-13T01:52:54;101000.66;;;18.48;63.45
31299;BME280;17927;52.350;13.402;2023-10-13T01:55:30;100992.63;;;18.46;63.31
31299;BME280;17927;52.350;13.402;2023-10-13T01:57:56;101002.53;;;18.47;63.68
31299;BME280;17927;52.350;13.402;2023-10-13T02:00:21;100993.28;;;18.48;63.43
31299;BME280;17927;52.350;13.402;2023-10-13T02:02:46;100991.22;;;18.50;63.69
31299;BME280;17927;52.350;13.402;2023-10-13T02:05:15;100993.78;;;18.52;63.43
31299;BME280;17927;52.350;13.402;2023-10-13T02:07:42;100986.41;;;18.52;63.56
31299;BME280;17927;52.350;13.402;2023-10-13T02:10:10;100979.06;;;18.53;63.70
31299;BME280;17927;52.350;13.402;2023-10-13T02:12:37;100977.16;;;18.53;63.46
31299;BME280;17927;52.350;13.402;2023-10-13T02:15:10;100975.66;;;18.51;63.51
31299;BME280;17927;52.350;13.402;2023-10-13T02:17:45;100967.47;;;18.51;63.74
31299;BME280;17927;52.350;13.402;2023-10-13T02:20:16;100964.91;;;18.49;63.49
31299;BME280;17927;52.350;13.402;2023-10-13T02:22:42;100963.03;;;18.50;63.69
31299;BME280;17927;52.350;13.402;2023-10-13T02:25:17;100964.91;;;18.49;63.56
31299;BME280;17927;52.350;13.402;2023-10-13T02:28:00;100961.50;;;18.47;63.57
31299;BME280;17927;52.350;13.402;2023-10-13T02:30:25;100946.78;;;18.48;63.63
31299;BME280;17927;52.350;13.402;2023-10-13T02:32:53;100949.53;;;18.48;63.91
31299;BME280;17927;52.350;13.402;2023-10-13T02:35:20;100956.03;;;18.47;63.56
31299;BME280;17927;52.350;13.402;2023-10-13T02:37:54;100961.72;;;18.46;63.57
31299;BME280;17927;52.350;13.402;2023-10-13T02:40:21;100957.06;;;18.46;63.69
31299;BME280;17927;52.350;13.402;2023-10-13T02:42:48;100949.72;;;18.47;63.92
31299;BME280;17927;52.350;13.402;2023-10-13T02:45:13;100948.03;;;18.46;63.76
31299;BME280;17927;52.350;13.402;2023-10-13T02:47:39;100944.25;;;18.47;64.15
31299;BME280;17927;52.350;13.402;2023-10-13T02:50:05;100944.25;;;18.47;63.77
31299;BME280;17927;52.350;13.402;2023-10-13T02:52:37;100944.25;;;18.47;64.10
31299;BME280;17927;52.350;13.402;2023-10-13T02:55:06;100935.84;;;18.48;64.18
31299;BME280;17927;52.350;13.402;2023-10-13T02:57:35;100923.88;;;18.49;64.09
31299;BME280;17927;52.350;13.402;2023-10-13T03:00:00;100931.03;;;18.50;63.99
31299;BME280;17927;52.350;13.402;2023-10-13T03:02:38;100922.84;;;18.50;64.22
31299;BME280;17927;52.350;13.402;2023-10-13T03:05:10;100921.81;;;18.51;64.14
31299;BME280;17927;52.350;13.402;2023-10-13T03:07:36;100923.50;;;18.52;64.12
31299;BME280;17927;52.350;13.402;2023-10-13T03:10:02;100917.66;;;18.55;64.20
31299;BME280;17927;52.350;13.402;2023-10-13T03:12:38;100917.66;;;18.55;64.01
31299;BME280;17927;52.350;13.402;2023-10-13T03:15:04;100914.53;;;18.59;63.85
31299;BME280;17927;52.350;13.402;2023-10-13T03:17:44;100910.09;;;18.58;64.36
31299;BME280;17927;52.350;13.402;2023-10-13T03:20:10;100907.16;;;18.59;64.17
31299;BME280;17927;52.350;13.402;2023-10-13T03:22:40;100904.44;;;18.59;64.40
31299;BME280;17927;52.350;13.402;2023-10-13T03:25:10;100893.50;;;18.59;64.25
31299;BME280;17927;52.350;13.402;2023-10-13T03:27:42;100881.72;;;18.59;63.92
31299;BME280;17927;52.350;13.402;2023-10-13T03:30:17;100885.28;;;18.59;64.02
31299;BME280;17927;52.350;13.402;2023-10-13T03:32:43;100892.44;;;18.60;63.93
31299;BME280;17927;52.350;13.402;2023-10-13T03:35:13;100868.94;;;18.44;64.57
31299;BME280;17927;52.350;13.402;2023-10-13T03:37:39;100876.53;;;18.49;64.23
31299;BME280;17927;52.350;13.402;2023-10-13T03:40:06;100876.41;;;18.57;64.40
31299;BME280;17927;52.350;13.402;2023-10-13T03:42:54;100874.53;;;18.58;64.35
31299;BME280;17927;52.350;13.402;2023-10-13T03:45:36;100880.00;;;18.58;64.02
31299;BME280;17927;52.350;13.402;2023-10-13T03:48:04;100871.81;;;18.58;64.32
31299;BME280;17927;52.350;13.402;2023-10-13T03:50:38;100871.81;;;18.58;64.17
31299;BME280;17927;52.350;13.402;2023-10-13T03:53:23;100865.03;;;18.53;64.21
31299;BME280;17927;52.350;13.402;2023-10-13T03:55:50;100874.94;;;18.54;64.35
31299;BME280;17927;52.350;13.402;2023-10-13T03:58:33;100886.91;;;18.53;64.62
31299;BME280;17927;52.350;13.402;2023-10-13T04:00:59;100878.50;;;18.55;64.37
31299;BME280;17927;52.350;13.402;2023-10-13T04:03:25;100876.63;;;18.55;64.69
31299;BME280;17927;52.350;13.402;2023-10-13T04:05:58;100873.88;;;18.55;64.78
31299;BME280;17927;52.350;13.402;2023-10-13T04:08:33;100863.97;;;18.54;64.82
31299;BME280;17927;52.350;13.402;2023-10-13T04:11:08;100861.03;;;18.56;64.83
31299;BME280;17927;52.350;13.402;2023-10-13T04:13:52;100856.59;;;18.55;64.87
31299;BME280;17927;52.350;13.402;2023-10-13T04:16:48;100856.81;;;18.53;64.98
31299;BME280;17927;52.350;13.402;2023-10-13T04:19:20;100836.66;;;18.39;64.86
31299;BME280;17927;52.350;13.402;2023-10-13T04:21:48;100837.97;;;18.44;65.17
31299;BME280;17927;52.350;13.402;2023-10-13T04:24:23;100835.69;;;18.47;65.07
31299;BME280;17927;52.350;13.402;2023-10-13T04:27:04;100839.94;;;18.50;64.83
31299;BME280;17927;52.350;13.402;2023-10-13T04:29:48;100847.13;;;18.51;64.84
31299;BME280;17927;52.350;13.402;2023-10-13T04:32:26;100841.44;;;18.52;65.29
31299;BME280;17927;52.350;13.402;2023-10-13T04:34:56;100834.72;;;18.55;64.93
31299;BME280;17927;52.350;13.402;2023-10-13T04:37:26;100827.19;;;18.57;64.93
31299;BME280;17927;52.350;13.402;2023-10-13T04:39:55;100827.66;;;18.61;65.36
31299;BME280;17927;52.350;13.402;2023-10-13T04:42:25;100825.75;;;18.61;65.14
31299;BME280;17927;52.350;13.402;2023-10-13T04:45:13;100818.38;;;18.62;65.12
31299;BME280;17927;52.350;13.402;2023-10-13T04:48:02;100823.69;;;18.63;65.31
31299;BME280;17927;52.350;13.402;2023-10-13T04:50:47;100821.78;;;18.64;65.20
31299;BME280;17927;52.350;13.402;2023-10-13T04:53:14;100809.63;;;18.66;65.50
31299;BME280;17927;52.350;13.402;2023-10-13T04:55:58;100808.09;;;18.64;65.66
31299;BME280;17927;52.350;13.402;2023-10-13T04:58:27;100807.91;;;18.65;65.27
31299;BME280;17927;52.350;13.402;2023-10-13T05:01:12;100811.47;;;18.66;65.48
31299;BME280;17927;52.350;13.402;2023-10-13T05:03:49;100808.38;;;18.69;65.31
31299;BME280;17927;52.350;13.402;2023-10-13T05:06:30;100804.97;;;18.67;65.47
31299;BME280;17927;52.350;13.402;2023-10-13T05:09:07;100806.47;;;18.69;65.80
31299;BME280;17927;52.350;13.402;2023-10-13T05:11:50;100805.41;;;18.70;65.60
31299;BME280;17927;52.350;13.402;2023-10-13T05:14:34;100808.16;;;18.70;65.72
31299;BME280;17927;52.350;13.402;2023-10-13T05:17:18;100807.13;;;18.71;66.00
31299;BME280;17927;52.350;13.402;2023-10-13T05:20:02;100798.91;;;18.71;66.01
31299;BME280;17927;52.350;13.402;2023-10-13T05:22:46;100799.78;;;18.72;65.62
31299;BME280;17927;52.350;13.402;2023-10-13T05:25:30;100796.19;;;18.71;65.83
31299;BME280;17927;52.350;13.402;2023-10-13T05:28:14;100797.03;;;18.72;65.88
31299;BME280;17927;52.350;13.402;2023-10-13T05:30:59;100787.78;;;18.73;65.80
31299;BME280;17927;52.350;13.402;2023-10-13T05:33:44;100802.31;;;18.74;66.14
31299;BME280;17927;52.350;13.402;2023-10-13T05:36:28;100800.44;;;18.74;65.94
31299;BME280;17927;52.350;13.402;2023-10-13T05:39:37;100800.22;;;18.76;66.29
31299;BME280;17927;52.350;13.402;2023-10-13T05:42:21;100797.88;;;18.72;66.01
31299;BME280;17927;52.350;13.402;2023-10-13T05:45:05;100803.16;;;18.74;66.32
31299;BME280;17927;52.350;13.402;2023-10-13T05:47:43;100810.13;;;18.77;66.40
31299;BME280;17927;52.350;13.402;2023-10-13T05:50:09;100812.66;;;18.78;66.38
31299;BME280;17927;52.350;13.402;2023-10-13T05:52:48;100819.16;;;18.77;66.36
31299;BME280;17927;52.350;13.402;2023-10-13T05:55:29;100815.38;;;18.78;66.61
31299;BME280;17927;52.350;13.402;2023-10-13T05:58:13;100810.34;;;18.75;66.73
31299;BME280;17927;52.350;13.402;2023-10-13T06:00:58;100792.00;;;18.76;66.43
31299;BME280;17927;52.350;13.402;2023-10-13T06:03:41;100792.88;;;18.76;66.77
31299;BME280;17927;52.350;13.402;2023-10-13T06:06:25;100792.66;;;18.78;66.58
31299;BME280;17927;52.350;13.402;2023-10-13T06:09:09;100776.03;;;18.79;66.39
31299;BME280;17927;52.350;13.402;2023-10-13T06:11:53;100778.59;;;18.81;66.49
31299;BME280;17927;52.350;13.402;2023-10-13T06:14:37;100776.50;;;18.83;67.08
31299;BME280;17927;52.350;13.402;2023-10-13T06:17:22;100772.97;;;18.89;67.05
31299;BME280;17927;52.350;13.402;2023-10-13T06:20:06;100778.34;;;18.97;67.10
31299;BME280;17927;52.350;13.402;2023-10-13T06:22:50;100776.31;;;19.06;67.45
31299;BME280;17927;52.350;13.402;2023-10-13T06:25:34;100783.31;;;19.15;67.72
31299;BME280;17927;52.350;13.402;2023-10-13T06:28:18;100780.41;;;19.24;67.27
31299;BME280;17927;52.350;13.402;2023-10-13T06:31:04;100774.38;;;19.28;66.99
31299;BME280;17927;52.350;13.402;2023-10-13T06:33:35;100781.53;;;19.29;67.13
31299;BME280;17927;52.350;13.402;2023-10-13T06:36:05;100788.94;;;19.36;66.81
31299;BME280;17927;52.350;13.402;2023-10-13T06:38:37;100796.97;;;19.37;66.96
31299;BME280;17927;52.350;13.402;2023-10-13T06:41:03;100794.66;;;19.41;66.50
31299;BME280;17927;52.350;13.402;2023-10-13T06:43:32;100782.66;;;19.42;66.58
31299;BME280;17927;52.350;13.402;2023-10-13T06:46:00;100770.44;;;19.44;66.52
31299;BME280;17927;52.350;13.402;2023-10-13T06:48:26;100774.47;;;19.48;66.69
31299;BME280;17927;52.350;13.402;2023-10-13T06:50:51;100777.47;;;19.54;66.58
31299;BME280;17927;52.350;13.402;2023-10-13T06:53:20;100785.09;;;19.58;66.82
31299;BME280;17927;52.350;13.402;2023-10-13T06:55:45;100777.09;;;19.63;66.91
31299;BME280;17927;52.350;13.402;2023-10-13T06:58:13;100779.66;;;19.72;66.78
31299;BME280;17927;52.350;13.402;2023-10-13T07:00:40;100781.56;;;19.78;67.03
31299;BME280;17927;52.350;13.402;2023-10-13T07:03:17;100785.44;;;19.84;67.22
31299;BME280;17927;52.350;13.402;2023-10-13T07:05:43;100784.00;;;19.95;67.01
31299;BME280;17927;52.350;13.402;2023-10-13T07:08:09;100788.28;;;20.04;66.97
31299;BME280;17927;52.350;13.402;2023-10-13T07:10:55;100784.28;;;20.13;67.13
31299;BME280;17927;52.350;13.402;2023-10-13T07:13:43;100776.50;;;20.17;66.95
31299;BME280;17927;52.350;13.402;2023-10-13T07:16:15;100767.66;;;20.21;66.78
31299;BME280;17927;52.350;13.402;2023-10-13T07:18:40;100784.53;;;20.25;66.42
31299;BME280;17927;52.350;13.402;2023-10-13T07:21:16;100760.91;;;20.24;66.45
31299;BME280;17927;52.350;13.402;2023-10-13T07:23:41;100765.13;;;20.27;66.49
31299;BME280;17927;52.350;13.402;2023-10-13T07:26:17;100764.28;;;20.26;66.57
31299;BME280;17927;52.350;13.402;2023-10-13T07:28:43;100765.34;;;20.25;66.70
31299;BME280;17927;52.350;13.402;2023-10-13T07:31:14;100769.16;;;20.31;66.32
31299;BME280;17927;52.350;13.402;2023-10-13T07:33:46;100771.91;;;20.31;66.42
31299;BME280;17927;52.350;13.402;2023-10-13T07:36:12;100766.00;;;20.34;66.67
31299;BME280;17927;52.350;13.402;2023-10-13T07:38:54;100761.34;;;20.34;66.51
31299;BME280;17927;52.350;13.402;2023-10-13T07:41:45;100761.16;;;20.36;66.66
31299;BME280;17927;52.350;13.402;2023-10-13T07:44:15;100751.44;;;20.40;66.46
31299;BME280;17927;52.350;13.402;2023-10-13T07:46:41;100755.69;;;20.43;66.74
31299;BME280;17927;52.350;13.402;2023-10-13T07:49:07;100757.78;;;20.47;66.54
31299;BME280;17927;52.350;13.402;2023-10-13T07:51:36;100744.72;;;20.49;66.53
31299;BME280;17927;52.350;13.402;2023-10-13T07:54:14;100749.78;;;20.52;66.70
31299;BME280;17927;52.350;13.402;2023-10-13T07:56:47;100757.38;;;20.57;66.77
31299;BME280;17927;52.350;13.402;2023-10-13T07:59:12;100750.22;;;20.63;66.35
31299;BME280;17927;52.350;13.402;2023-10-13T08:01:38;100750.22;;;20.69;66.73
31299;BME280;17927;52.350;13.402;2023-10-13T08:04:08;100739.47;;;20.75;66.45
31299;BME280;17927;52.350;13.402;2023-10-13T08:06:53;100724.72;;;20.76;66.35
31299;BME280;17927;52.350;13.402;2023-10-13T08:09:27;100714.97;;;20.80;66.38
31299;BME280;17927;52.350;13.402;2023-10-13T08:11:56;100724.28;;;20.86;66.61
31299;BME280;17927;52.350;13.402;2023-10-13T08:14:21;100732.94;;;20.89;66.56
31299;BME280;17927;52.350;13.402;2023-10-13T08:16:58;100724.47;;;20.91;66.19
31299;BME280;17927;52.350;13.402;2023-10-13T08:19:28;100721.31;;;20.94;65.94
31299;BME280;17927;52.350;13.402;2023-10-13T08:21:59;100723.41;;;20.98;66.34
31299;BME280;17927;52.350;13.402;2023-10-13T08:24:25;100719.84;;;21.05;66.57
31299;BME280;17927;52.350;13.402;2023-10-13T08:27:15;100718.13;;;21.10;66.30
31299;BME280;17927;52.350;13.402;2023-10-13T08:29:59;100714.31;;;21.18;66.39
31299;BME280;17927;52.350;13.402;2023-10-13T08:32:48;100717.28;;;21.23;66.41
31299;BME280;17927;52.350;13.402;2023-10-13T08:35:20;100718.09;;;21.30;66.38
31299;BME280;17927;52.350;13.402;2023-10-13T08:37:59;100723.78;;;21.36;66.30
31299;BME280;17927;52.350;13.402;2023-10-13T08:40:27;100711.31;;;21.40;65.88
31299;BME280;17927;52.350;13.402;2023-10-13T08:43:10;100703.47;;;21.43;65.79
31299;BME280;17927;52.350;13.402;2023-10-13T08:45:40;100696.25;;;21.49;65.75
31299;BME280;17927;52.350;13.402;2023-10-13T08:48:12;100700.47;;;21.52;65.99
31299;BME280;17927;52.350;13.402;2023-10-13T08:50:49;100688.00;;;21.56;65.74
31299;BME280;17927;52.350;13.402;2023-10-13T08:53:22;100684.81;;;21.59;65.61
31299;BME280;17927;52.350;13.402;2023-10-13T08:56:00;100699.84;;;21.63;65.48
31299;BME280;17927;52.350;13.402;2023-10-13T08:58:46;100688.38;;;21.66;65.60
31299;BME280;17927;52.350;13.402;2023-10-13T09:01:32;100686.91;;;21.70;65.71
31299;BME280;17927;52.350;13.402;2023-10-13T09:04:14;100676.53;;;21.72;65.41
31299;BME280;17927;52.350;13.402;2023-10-13T09:07:19;100684.13;;;21.77;65.28
31299;BME280;17927;52.350;13.402;2023-10-13T09:12:15;100682.28;;;21.64;65.87
31299;BME280;17927;52.350;13.402;2023-10-13T09:14:43;100680.97;;;21.73;65.66
31299;BME280;17927;52.350;13.402;2023-10-13T09:17:10;100673.31;;;21.82;65.29
31299;BME280;17927;52.350;13.402;2023-10-13T09:20:06;100658.28;;;21.85;65.17
31299;BME280;17927;52.350;13.402;2023-10-13T09:22:46;100669.34;;;21.71;65.71
31299;BME280;17927;52.350;13.402;2023-10-13T09:27:58;100647.91;;;21.87;65.15
31299;BME280;17927;52.350;13.402;2023-10-13T09:30:25;100648.72;;;21.94;64.96
31299;BME280;17927;52.350;13.402;2023-10-13T09:33:04;100651.63;;;21.99;64.85
31299;BME280;17927;52.350;13.402;2023-10-13T09:35:30;100655.00;;;22.01;64.41
31299;BME280;17927;52.350;13.402;2023-10-13T09:37:59;100644.63;;;22.03;64.38
31299;BME280;17927;52.350;13.402;2023-10-13T09:40:24;100630.66;;;22.05;64.48
31299;BME280;17927;52.350;13.402;2023-10-13T09:42:51;100628.50;;;22.07;64.75
31299;BME280;17927;52.350;13.402;2023-10-13T09:45:17;100639.31;;;22.09;64.31
31299;BME280;17927;52.350;13.402;2023-10-13T09:47:44;100628.06;;;22.10;64.62
31299;BME280;17927;52.350;13.402;2023-10-13T09:50:17;100627.25;;;22.10;64.35
31299;BME280;17927;52.350;13.402;2023-10-13T09:52:50;100615.19;;;22.11;64.63
31299;BME280;17927;52.350;13.402;2023-10-13T09:55:26;100607.31;;;22.14;64.73
31299;BME280;17927;52.350;13.402;2023-10-13T09:58:07;100601.38;;;22.17;64.60
31299;BME280;17927;52.350;13.402;2023-10-13T10:00:42;100604.72;;;22.19;65.00
31299;BME280;17927;52.350;13.402;2023-10-13T10:03:12;100611.69;;;22.22;64.88
31299;BME280;17927;52.350;13.402;2023-10-13T10:05:56;100593.06;;;22.24;65.02
31299;BME280;17927;52.350;13.402;2023-10-13T10:08:29;100594.28;;;22.28;64.80
31299;BME280;17927;52.350;13.402;2023-10-13T10:13:47;100590.19;;;22.38;64.52
31299;BME280;17927;52.350;13.402;2023-10-13T10:16:29;100589.13;;;22.39;64.81
31299;BME280;17927;52.350;13.402;2023-10-13T10:19:01;100587.81;;;22.41;64.59
31299;BME280;17927;52.350;13.402;2023-10-13T10:21:36;100587.16;;;22.46;64.25
31299;BME280;17927;52.350;13.402;2023-10-13T10:24:13;100591.63;;;22.47;64.60
31299;BME280;17927;52.350;13.402;2023-10-13T10:26:50;100584.22;;;22.47;64.37
31299;BME280;17927;52.350;13.402;2023-10-13T10:29:16;100586.97;;;22.47;64.30
31299;BME280;17927;52.350;13.402;2023-10-13T10:31:41;100568.31;;;22.49;64.56
31299;BME280;17927;52.350;13.402;2023-10-13T10:34:17;100577.41;;;22.50;64.13
31299;BME280;17927;52.350;13.402;2023-10-13T10:36:53;100574.66;;;22.50;64.51
31299;BME280;17927;52.350;13.402;2023-10-13T10:39:18;100563.88;;;22.48;64.50
31299;BME280;17927;52.350;13.402;2023-10-13T10:41:44;100561.13;;;22.48;64.49
31299;BME280;17927;52.350;13.402;2023-10-13T10:44:10;100556.47;;;22.49;64.74
31299;BME280;17927;52.350;13.402;2023-10-13T10:46:41;100562.81;;;22.49;64.69
31299;BME280;17927;52.350;13.402;2023-10-13T10:49:09;100556.22;;;22.50;64.93
31299;BME280;17927;52.350;13.402;2023-10-13T10:51:40;100553.00;;;22.54;64.85
31299;BME280;17927;52.350;13.402;2023-10-13T10:54:19;100548.59;;;22.53;65.00
31299;BME280;17927;52.350;13.402;2023-10-13T10:56:46;100551.94;;;22.55;64.99
31299;BME280;17927;52.350;13.402;2023-10-13T10:59:17;100546.44;;;22.55;65.22
31299;BME280;17927;52.350;13.402;2023-10-13T11:01:50;100544.31;;;22.57;65.16
31299;BME280;17927;52.350;13.402;2023-10-13T11:04:18;100533.53;;;22.55;65.43
31299;BME280;17927;52.350;13.402;2023-10-13T11:06:49;100524.22;;;22.56;65.02
31299;BME280;17927;52.350;13.402;2023-10-13T11:09:14;100518.66;;;22.38;65.56
31299;BME280;17927;52.350;13.402;2023-10-13T11:11:56;100508.69;;;22.43;65.52
31299;BME280;17927;52.350;13.402;2023-10-13T11:14:27;100520.69;;;22.49;65.38
31299;BME280;17927;52.350;13.402;2023-10-13T11:16:55;100510.06;;;22.53;65.24
31299;BME280;17927;52.350;13.402;2023-10-13T11:19:37;100504.94;;;22.56;65.14
31299;BME280;17927;52.350;13.402;2023-10-13T11:22:15;100506.84;;;22.56;65.66
31299;BME280;17927;52.350;13.402;2023-10-13T11:25:03;100497.75;;;22.55;65.30
31299;BME280;17927;52.350;13.402;2023-10-13T11:27:35;100490.34;;;22.56;65.57
31299;BME280;17927;52.350;13.402;2023-10-13T11:30:11;100490.72;;;22.59;65.62
31299;BME280;17927;52.350;13.402;2023-10-13T11:32:37;100498.50;;;22.62;65.78
31299;BME280;17927;52.350;13.402;2023-10-13T11:35:07;100495.06;;;22.67;65.52
31299;BME280;17927;52.350;13.402;2023-10-13T11:37:36;100487.81;;;22.73;65.49
31299;BME280;17927;52.350;13.402;2023-10-13T11:40:08;100479.94;;;22.76;65.11
31299;BME280;17927;52.350;13.402;2023-10-13T11:42:37;100489.41;;;22.80;65.25
31299;BME280;17927;52.350;13.402;2023-10-13T11:45:02;100469.66;;;22.84;65.11
31299;BME280;17927;52.350;13.402;2023-10-13T11:47:47;100470.88;;;22.88;65.02
31299;BME280;17927;52.350;13.402;2023-10-13T11:50:13;100454.75;;;22.91;64.88
31299;BME280;17927;52.350;13.402;2023-10-13T11:52:38;100458.47;;;22.97;65.00
31299;BME280;17927;52.350;13.402;2023-10-13T11:55:05;100458.16;;;23.05;64.92
31299;BME280;17927;52.350;13.402;2023-10-13T11:57:31;100451.72;;;23.11;64.74
31299;BME280;17927;52.350;13.402;2023-10-13T11:59:57;100455.47;;;23.17;64.52
31299;BME280;17927;52.350;13.402;2023-10-13T12:02:41;100446.72;;;23.20;64.47
31299;BME280;17927;52.350;13.402;2023-10-13T12:05:25;100444.38;;;23.24;64.47
31299;BME280;17927;52.350;13.402;2023-10-13T12:08:02;100449.16;;;23.29;64.15
31299;BME280;17927;52.350;13.402;2023-10-13T12:10:32;100433.84;;;23.33;63.98
31299;BME280;17927;52.350;13.402;2023-10-13T12:13:14;100436.97;;;23.36;63.87
31299;BME280;17927;52.350;13.402;2023-10-13T12:15:39;100429.06;;;23.40;63.61
31299;BME280;17927;52.350;13.402;2023-10-13T12:18:15;100427.97;;;23.41;63.19
31299;BME280;17927;52.350;13.402;2023-10-13T12:20:41;100434.94;;;23.44;63.43
31299;BME280;17927;52.350;13.402;2023-10-13T12:23:11;100409.66;;;23.47;63.29
31299;BME280;17927;52.350;13.402;2023-10-13T12:25:40;100406.91;;;23.47;63.13
31299;BME280;17927;52.350;13.402;2023-10-13T12:28:25;100406.44;;;23.50;63.33
31299;BME280;17927;52.350;13.402;2023-10-13T12:30:53;100409.31;;;23.55;63.23
31299;BME280;17927;52.350;13.402;2023-10-13T12:33:19;100413.03;;;23.61;63.18
31299;BME280;17927;52.350;13.402;2023-10-13T12:35:57;100399.63;;;23.64;63.17
31299;BME280;17927;52.350;13.402;2023-10-13T12:38:31;100397.34;;;23.49;63.84
31299;BME280;17927;52.350;13.402;2023-10-13T12:41:15;100399.47;;;23.59;63.69
31299;BME280;17927;52.350;13.402;2023-10-13T12:43:59;100403.09;;;23.71;63.42
31299;BME280;17927;52.350;13.402;2023-10-13T12:46:43;100395.53;;;23.79;62.71
31299;BME280;17927;52.350;13.402;2023-10-13T12:49:27;100384.38;;;23.85;62.44
31299;BME280;17927;52.350;13.402;2023-10-13T12:52:11;100377.06;;;23.91;62.95
31299;BME280;17927;52.350;13.402;2023-10-13T12:54:50;100370.00;;;23.95;62.85
31299;BME280;17927;52.350;13.402;2023-10-13T12:57:22;100376.88;;;24.05;62.58
31299;BME280;17927;52.350;13.402;2023-10-13T12:59:51;100373.38;;;24.09;62.14
31299;BME280;17927;52.350;13.402;2023-10-13T13:02:20;100355.84;;;24.15;61.83
31299;BME280;17927;52.350;13.402;2023-10-13T13:04:46;100353.44;;;24.19;61.62
31299;BME280;17927;52.350;13.402;2023-10-13T13:07:16;100352.94;;;24.22;61.71
31299;BME280;17927;52.350;13.402;2023-10-13T13:09:41;100338.66;;;24.25;61.67
31299;BME280;17927;52.350;13.402;2023-10-13T13:12:06;100335.41;;;24.28;61.70
31299;BME280;17927;52.350;13.402;2023-10-13T13:14:32;100336.94;;;24.36;61.68
31299;BME280;17927;52.350;13.402;2023-10-13T13:16:59;100320.25;;;24.43;61.19
31299;BME280;17927;52.350;13.402;2023-10-13T13:19:34;100316.84;;;24.53;61.10
31299;BME280;17927;52.350;13.402;2023-10-13T13:22:02;100308.16;;;24.61;60.76